createdAt,value
2019-05-19T00:00:50.125Z,95.40
2019-05-19T00:03:23.063Z,94.50
2019-05-19T00:05:54.576Z,96.40
2019-05-19T00:08:24.805Z,97.80
2019-05-19T00:10:55.676Z,97.60
2019-05-19T00:13:34.284Z,98.00
2019-05-19T00:16:06.533Z,99.00
2019-05-19T00:18:36.789Z,98.80
2019-05-19T00:21:11.293Z,98.80
2019-05-19T00:23:42.331Z,98.80
2019-05-19T00:26:12.498Z,99.70
2019-05-19T00:28:42.812Z,99.10
2019-05-19T00:31:15.074Z,99.30
2019-05-19T00:33:45.246Z,97.10
2019-05-19T00:36:19.622Z,97.00
2019-05-19T00:38:49.958Z,98.20
2019-05-19T00:41:23.681Z,98.70
2019-05-19T00:43:54.710Z,99.70
2019-05-19T00:46:25.394Z,99.60
2019-05-19T00:48:55.576Z,99.90
2019-05-19T00:51:26.335Z,99.90
2019-05-19T00:53:56.683Z,99.90
2019-05-19T00:56:27.974Z,99.90
2019-05-19T00:59:02.086Z,99.60
2019-05-19T01:01:32.638Z,99.80
2019-05-19T01:04:03.527Z,98.30
2019-05-19T01:06:34.092Z,97.60
2019-05-19T01:09:06.955Z,98.50
2019-05-19T01:11:37.558Z,99.50
2019-05-19T01:14:15.181Z,98.90
2019-05-19T01:16:43.900Z,98.00
2019-05-19T01:19:16.644Z,98.30
2019-05-19T01:21:54.214Z,99.40
2019-05-19T01:24:24.729Z,98.90
2019-05-19T01:26:55.306Z,99.00
2019-05-19T01:29:28.104Z,98.50
2019-05-19T01:31:58.546Z,99.40
2019-05-19T01:34:30.868Z,99.90
2019-05-19T01:37:02.258Z,99.90
2019-05-19T01:39:34.442Z,99.90
2019-05-19T01:42:09.300Z,99.90
2019-05-19T01:44:40.386Z,99.90
2019-05-19T01:47:11.835Z,99.30
2019-05-19T01:49:41.911Z,97.70
2019-05-19T01:52:13.675Z,97.50
2019-05-19T01:54:46.380Z,96.40
2019-05-19T01:57:17.743Z,97.50
2019-05-19T01:59:47.908Z,98.10
2019-05-19T02:02:18.440Z,98.30
2019-05-19T02:04:51.688Z,96.90
2019-05-19T02:07:22.564Z,97.40
2019-05-19T02:09:52.809Z,98.20
2019-05-19T02:12:23.472Z,98.30
2019-05-19T02:14:53.621Z,98.30
2019-05-19T02:17:23.748Z,98.20
2019-05-19T02:19:54.463Z,97.70
2019-05-19T02:22:26.505Z,98.60
2019-05-19T02:24:57.019Z,96.90
2019-05-19T02:27:27.464Z,96.30
2019-05-19T02:30:02.652Z,96.70
2019-05-19T02:32:39.785Z,97.70
2019-05-19T02:35:10.645Z,97.60
2019-05-19T02:37:42.656Z,97.10
2019-05-19T02:40:13.418Z,96.30
2019-05-19T02:42:48.833Z,96.70
2019-05-19T02:45:19.537Z,96.20
2019-05-19T02:47:52.375Z,95.80
2019-05-19T02:50:26.305Z,96.10
2019-05-19T02:53:02.384Z,95.70
2019-05-19T02:55:35.955Z,96.50
2019-05-19T02:58:09.705Z,97.00
2019-05-19T03:00:43.095Z,97.30
2019-05-19T03:03:13.656Z,97.50
2019-05-19T03:05:45.384Z,96.80
2019-05-19T03:08:18.734Z,97.50
2019-05-19T03:10:51.176Z,97.60
2019-05-19T03:13:23.265Z,98.10
2019-05-19T03:15:54.135Z,98.30
2019-05-19T03:18:27.067Z,99.10
2019-05-19T03:21:10.476Z,98.50
2019-05-19T03:23:32.050Z,99.10
2019-05-19T03:26:02.395Z,98.10
2019-05-19T03:28:32.656Z,97.60
2019-05-19T03:31:31.309Z,96.20
2019-05-19T03:34:02.580Z,96.40
2019-05-19T03:36:36.793Z,96.80
2019-05-19T03:39:07.851Z,96.40
2019-05-19T03:41:38.636Z,96.40
2019-05-19T03:44:13.194Z,97.10
2019-05-19T03:46:46.900Z,97.20
2019-05-19T03:49:17.678Z,96.80
2019-05-19T03:51:48.694Z,97.90
2019-05-19T03:54:19.788Z,96.40
2019-05-19T03:56:56.378Z,95.40
2019-05-19T03:59:29.819Z,95.20
2019-05-19T04:02:03.860Z,95.50
2019-05-19T04:04:34.409Z,95.40
2019-05-19T04:07:08.004Z,95.40
2019-05-19T04:09:38.590Z,94.90
2019-05-19T04:12:10.688Z,95.90
2019-05-19T04:14:44.804Z,96.20
2019-05-19T04:17:19.626Z,97.60
2019-05-19T04:19:51.003Z,98.80
2019-05-19T04:22:21.815Z,98.40
2019-05-19T04:24:52.562Z,98.80
2019-05-19T04:27:23.613Z,99.50
2019-05-19T04:29:57.314Z,98.50
2019-05-19T04:32:30.311Z,98.40
2019-05-19T04:35:02.473Z,96.80
2019-05-19T04:37:38.626Z,96.80
2019-05-19T04:40:10.601Z,97.80
2019-05-19T04:42:42.090Z,97.80
2019-05-19T04:45:19.030Z,98.40
2019-05-19T04:47:49.714Z,98.70
2019-05-19T04:50:22.644Z,98.90
2019-05-19T04:52:53.373Z,98.90
2019-05-19T04:55:23.581Z,99.10
2019-05-19T04:57:54.910Z,98.50
2019-05-19T05:00:25.545Z,98.60
2019-05-19T05:03:00.097Z,96.70
2019-05-19T05:05:32.516Z,95.90
2019-05-19T05:08:27.844Z,96.40
2019-05-19T05:10:59.338Z,95.90
2019-05-19T05:16:10.855Z,96.70
2019-05-19T05:18:41.456Z,96.50
2019-05-19T05:21:12.699Z,97.00
2019-05-19T05:23:46.224Z,96.80
2019-05-19T05:26:20.133Z,96.00
2019-05-19T05:28:54.614Z,95.00
2019-05-19T05:31:26.473Z,95.70
2019-05-19T05:33:58.350Z,94.60
2019-05-19T05:36:31.629Z,92.00
2019-05-19T05:39:05.767Z,89.30
2019-05-19T05:41:36.347Z,88.00
2019-05-19T05:44:07.702Z,89.10
2019-05-19T05:46:38.242Z,86.40
2019-05-19T05:49:09.133Z,89.80
2019-05-19T05:51:39.285Z,89.30
2019-05-19T05:54:12.686Z,89.40
2019-05-19T05:56:48.000Z,91.70
2019-05-19T05:59:19.702Z,91.30
2019-05-19T06:01:52.326Z,85.70
2019-05-19T06:04:23.446Z,87.20
2019-05-19T06:06:58.882Z,87.80
2019-05-19T06:09:30.129Z,86.70
2019-05-19T06:12:07.222Z,85.30
2019-05-19T06:14:37.945Z,88.10
2019-05-19T06:17:09.029Z,89.30
2019-05-19T06:19:41.136Z,83.00
2019-05-19T06:22:33.968Z,86.40
2019-05-19T06:25:04.724Z,81.80
2019-05-19T06:27:43.911Z,87.70
2019-05-19T06:30:17.886Z,87.80
2019-05-19T06:32:53.593Z,86.20
2019-05-19T06:35:28.339Z,89.00
2019-05-19T06:38:02.598Z,83.60
2019-05-19T06:40:33.015Z,78.50
2019-05-19T06:43:03.408Z,81.60
2019-05-19T06:45:33.527Z,84.30
2019-05-19T06:48:05.286Z,89.80
2019-05-19T06:50:40.599Z,86.10
2019-05-19T06:53:14.018Z,78.20
2019-05-19T06:55:41.044Z,70.90
2019-05-19T06:58:11.189Z,68.70
2019-05-19T07:00:41.406Z,70.30
2019-05-19T07:03:11.513Z,78.70
2019-05-19T07:05:41.906Z,78.50
2019-05-19T07:08:12.764Z,80.30
2019-05-19T07:10:42.848Z,74.80
2019-05-19T07:13:23.577Z,64.30
2019-05-19T07:15:56.565Z,67.30
2019-05-19T07:18:26.715Z,64.50
2019-05-19T07:21:00.094Z,57.00
2019-05-19T07:23:30.277Z,60.40
2019-05-19T07:26:00.395Z,61.10
2019-05-19T07:28:32.940Z,61.90
2019-05-19T07:31:03.455Z,66.00
2019-05-19T07:33:33.628Z,63.40
2019-05-19T07:36:05.241Z,60.10
2019-05-19T07:38:35.722Z,62.30
2019-05-19T07:41:06.597Z,58.40
2019-05-19T07:43:37.155Z,59.50
2019-05-19T07:46:08.789Z,57.30
2019-05-19T07:48:42.983Z,63.40
2019-05-19T07:51:13.091Z,59.20
2019-05-19T07:53:52.333Z,55.60
2019-05-19T07:56:24.982Z,55.80
2019-05-19T07:58:56.662Z,55.70
2019-05-19T08:01:29.366Z,58.30
2019-05-19T08:04:04.606Z,56.40
2019-05-19T08:06:35.131Z,54.70
2019-05-19T08:09:06.652Z,56.00
2019-05-19T08:11:38.346Z,52.80
2019-05-19T08:14:08.539Z,52.00
2019-05-19T08:16:38.656Z,50.20
2019-05-19T08:19:13.191Z,48.30
2019-05-19T08:21:46.058Z,49.70
2019-05-19T08:24:17.955Z,50.00
2019-05-19T08:26:48.564Z,48.50
2019-05-19T08:29:18.749Z,45.30
2019-05-19T08:31:49.060Z,45.60
2019-05-19T08:34:20.958Z,49.50
2019-05-19T08:36:52.072Z,47.40
2019-05-19T08:39:22.262Z,46.50
2019-05-19T08:41:57.087Z,44.70
2019-05-19T08:44:30.723Z,49.60
2019-05-19T08:47:02.033Z,48.90
2019-05-19T08:49:32.752Z,49.60
2019-05-19T08:52:05.150Z,47.50
2019-05-19T08:54:36.697Z,43.20
2019-05-19T08:57:08.606Z,46.70
2019-05-19T08:59:38.852Z,44.90
2019-05-19T09:02:10.517Z,44.20
2019-05-19T09:04:43.896Z,45.30
2019-05-19T09:07:16.879Z,42.90
2019-05-19T09:09:49.291Z,41.50
2019-05-19T09:12:22.624Z,40.40
2019-05-19T09:14:54.377Z,38.00
2019-05-19T09:17:47.584Z,41.10
2019-05-19T09:20:23.845Z,42.60
2019-05-19T09:22:56.715Z,45.00
2019-05-19T09:25:31.429Z,45.50
2019-05-19T09:28:44.237Z,48.40
2019-05-19T09:34:37.534Z,48.30
2019-05-19T09:37:37.300Z,47.40
2019-05-19T09:40:11.691Z,42.90
2019-05-19T09:42:44.382Z,42.00
2019-05-19T09:49:36.036Z,40.90
2019-05-19T09:52:07.126Z,39.80
2019-05-19T09:54:45.139Z,43.20
2019-05-19T09:57:15.543Z,43.00
2019-05-19T09:59:47.451Z,42.60
2019-05-19T10:02:22.724Z,41.80
2019-05-19T10:05:01.517Z,40.50
2019-05-19T10:07:38.873Z,34.90
2019-05-19T10:10:12.605Z,36.20
2019-05-19T10:12:48.483Z,37.00
2019-05-19T10:15:18.768Z,35.90
2019-05-19T10:18:41.940Z,34.30
2019-05-19T10:21:12.365Z,34.50
2019-05-19T10:23:42.865Z,35.60
2019-05-19T10:26:13.233Z,33.20
2019-05-19T10:28:43.424Z,33.40
2019-05-19T10:31:14.818Z,33.30
2019-05-19T10:33:47.013Z,34.80
2019-05-19T10:36:18.657Z,36.50
2019-05-19T10:38:48.925Z,33.80
2019-05-19T10:41:19.171Z,33.00
2019-05-19T10:43:51.938Z,32.40
2019-05-19T10:46:25.039Z,34.80
2019-05-19T10:48:57.030Z,34.10
2019-05-19T10:51:27.495Z,34.30
2019-05-19T10:53:58.115Z,32.10
2019-05-19T10:56:30.351Z,32.70
2019-05-19T10:59:02.003Z,33.30
2019-05-19T11:01:33.426Z,32.30
2019-05-19T11:04:04.632Z,31.80
2019-05-19T11:06:35.854Z,32.50
2019-05-19T11:09:07.815Z,32.60
2019-05-19T11:11:39.500Z,33.10
2019-05-19T11:14:09.667Z,32.90
2019-05-19T11:16:39.976Z,30.20
2019-05-19T11:19:12.262Z,30.00
2019-05-19T11:21:43.869Z,33.40
2019-05-19T11:24:15.891Z,30.70
2019-05-19T11:26:46.621Z,32.00
2019-05-19T11:29:21.249Z,30.00
2019-05-19T11:31:51.636Z,29.40
2019-05-19T11:34:21.864Z,31.60
2019-05-19T11:36:52.259Z,30.70
2019-05-19T11:39:27.167Z,29.90
2019-05-19T11:41:59.466Z,30.40
2019-05-19T11:44:29.849Z,28.60
2019-05-19T11:47:00.085Z,29.30
2019-05-19T11:49:30.747Z,28.90
2019-05-19T11:52:01.298Z,29.60
2019-05-19T11:54:31.521Z,27.60
2019-05-19T11:57:03.401Z,28.80
2019-05-19T11:59:33.819Z,30.60
2019-05-19T12:02:04.304Z,30.00
2019-05-19T12:04:35.061Z,29.90
2019-05-19T12:07:05.528Z,28.20
2019-05-19T12:09:36.607Z,27.60
2019-05-19T12:12:08.786Z,29.20
2019-05-19T12:14:41.369Z,28.10
2019-05-19T12:17:14.928Z,28.60
2019-05-19T12:19:47.698Z,27.00
2019-05-19T12:22:18.657Z,30.00
2019-05-19T12:24:49.457Z,27.30
2019-05-19T12:27:20.597Z,28.80
2019-05-19T12:29:51.408Z,27.70
2019-05-19T12:32:23.102Z,24.90
2019-05-19T12:34:53.494Z,25.80
2019-05-19T12:37:23.704Z,25.90
2019-05-19T12:39:54.142Z,26.00
2019-05-19T12:42:24.377Z,26.00
2019-05-19T12:44:54.866Z,27.40
2019-05-19T12:47:26.333Z,27.60
2019-05-19T12:49:59.466Z,26.60
2019-05-19T12:52:34.775Z,26.00
2019-05-19T12:55:09.064Z,25.10
2019-05-19T12:57:39.733Z,24.10
2019-05-19T13:00:10.524Z,24.50
2019-05-19T13:02:40.864Z,24.70
2019-05-19T13:05:12.088Z,25.90
2019-05-19T13:07:42.393Z,24.40
2019-05-19T13:10:16.473Z,23.60
2019-05-19T13:12:47.800Z,23.30
2019-05-19T13:15:20.286Z,23.60
2019-05-19T13:17:50.659Z,22.70
2019-05-19T13:20:29.988Z,24.10
2019-05-19T13:23:01.510Z,23.90
2019-05-19T13:25:54.685Z,23.90
2019-05-19T13:28:25.154Z,23.60
2019-05-19T13:33:34.166Z,23.20
2019-05-19T13:36:04.679Z,23.90
2019-05-19T13:38:35.289Z,22.30
2019-05-19T13:41:06.516Z,21.80
2019-05-19T13:43:37.531Z,20.70
2019-05-19T13:46:09.361Z,20.60
2019-05-19T13:48:40.286Z,21.10
2019-05-19T13:51:27.721Z,20.50
2019-05-19T13:53:58.702Z,20.90
2019-05-19T13:56:29.057Z,22.50
2019-05-19T13:59:02.485Z,23.00
2019-05-19T14:01:36.841Z,23.60
2019-05-19T14:04:07.152Z,22.30
2019-05-19T14:06:40.851Z,22.40
2019-05-19T14:09:11.234Z,23.50
2019-05-19T14:11:41.622Z,22.70
2019-05-19T14:14:12.235Z,22.80
2019-05-19T14:16:45.120Z,23.10
2019-05-19T14:19:15.979Z,23.60
2019-05-19T14:24:25.509Z,22.90
2019-05-19T14:26:55.968Z,22.90
2019-05-19T14:29:27.720Z,22.60
2019-05-19T14:31:59.380Z,22.20
2019-05-19T14:34:29.884Z,23.00
2019-05-19T14:37:00.100Z,22.20
2019-05-19T14:39:34.467Z,22.40
2019-05-19T14:42:15.491Z,22.70
2019-05-19T14:44:45.073Z,22.90
2019-05-19T14:47:20.492Z,24.20
2019-05-19T14:49:56.125Z,23.80
2019-05-19T14:52:30.746Z,24.20
2019-05-19T14:55:05.594Z,23.60
2019-05-19T14:57:44.406Z,22.30
2019-05-19T15:00:12.777Z,22.30
2019-05-19T15:02:44.349Z,21.80
2019-05-19T15:05:16.199Z,23.50
2019-05-19T15:07:48.627Z,22.80
2019-05-19T15:10:21.959Z,21.20
2019-05-19T15:12:58.624Z,21.50
2019-05-19T15:15:29.674Z,20.70
2019-05-19T15:18:03.124Z,20.20
2019-05-19T15:20:33.691Z,19.30
2019-05-19T15:23:18.813Z,18.80
2019-05-19T15:25:50.648Z,21.80
2019-05-19T15:28:31.232Z,20.60
2019-05-19T15:31:06.900Z,22.50
2019-05-19T15:33:38.812Z,22.20
2019-05-19T15:36:10.553Z,22.40
2019-05-19T15:38:49.696Z,23.20
2019-05-19T15:41:24.897Z,22.00
2019-05-19T15:43:55.367Z,21.40
2019-05-19T15:46:28.164Z,19.80
2019-05-19T15:49:04.816Z,15.70
2019-05-19T15:51:37.890Z,16.00
2019-05-19T15:54:10.245Z,17.80
2019-05-19T15:56:49.266Z,18.40
2019-05-19T15:59:32.793Z,19.50
2019-05-19T16:02:05.785Z,21.90
2019-05-19T16:04:40.236Z,21.40
2019-05-19T16:07:36.279Z,22.90
2019-05-19T16:10:09.455Z,23.40
2019-05-19T16:12:41.958Z,23.90
2019-05-19T16:15:19.111Z,24.50
2019-05-19T16:17:54.957Z,23.60
2019-05-19T16:20:29.305Z,25.10
2019-05-19T16:23:06.483Z,23.60
2019-05-19T16:25:36.718Z,23.40
2019-05-19T16:28:09.245Z,25.00
2019-05-19T16:30:39.716Z,21.40
2019-05-19T16:33:10.259Z,18.40
2019-05-19T16:35:40.682Z,20.10
2019-05-19T16:38:12.300Z,23.80
2019-05-19T16:40:46.104Z,26.30
2019-05-19T16:43:16.429Z,28.70
2019-05-19T16:45:51.771Z,34.30
2019-05-19T16:48:23.439Z,45.00
2019-05-19T16:50:57.069Z,46.10
2019-05-19T16:53:27.379Z,48.30
2019-05-19T16:55:59.304Z,52.80
2019-05-19T16:58:44.391Z,54.70
2019-05-19T17:01:05.449Z,61.10
2019-05-19T17:03:56.005Z,58.80
2019-05-19T17:06:26.744Z,59.30
2019-05-19T17:08:56.859Z,65.60
2019-05-19T17:11:30.858Z,81.70
2019-05-19T17:14:01.004Z,78.80
2019-05-19T17:16:33.572Z,80.20
2019-05-19T17:19:04.387Z,85.60
2019-05-19T17:21:42.685Z,91.10
2019-05-19T17:24:21.075Z,91.80
2019-05-19T17:26:54.174Z,91.90
2019-05-19T17:29:29.605Z,89.20
2019-05-19T17:32:40.865Z,90.50
2019-05-19T18:10:20.408Z,91.00
2019-05-19T18:24:35.289Z,95.10
2019-05-19T18:27:25.750Z,96.50
2019-05-19T18:38:21.823Z,94.70
2019-05-19T18:44:48.855Z,96.70
2019-05-19T18:47:51.815Z,97.80
2019-05-19T18:51:42.669Z,97.80
2019-05-19T18:55:09.502Z,95.20
2019-05-19T19:22:20.714Z,97.70
2019-05-19T19:36:38.531Z,98.10
2019-05-19T19:40:09.980Z,96.60
2019-05-19T19:43:18.547Z,95.70
2019-05-19T19:45:58.159Z,95.20
2019-05-19T19:48:33.127Z,96.00
2019-05-19T19:51:13.837Z,95.90
2019-05-19T19:53:47.238Z,95.20
2019-05-19T19:56:25.798Z,95.60
2019-05-19T19:59:04.006Z,95.50
2019-05-19T20:04:13.206Z,94.70
2019-05-19T20:06:52.967Z,93.20
2019-05-19T20:09:28.848Z,93.60
2019-05-19T20:18:40.607Z,94.00
2019-05-19T20:21:13.036Z,93.50
2019-05-19T20:24:06.028Z,93.00
2019-05-19T20:26:45.634Z,93.10
2019-05-19T20:29:22.410Z,91.70
2019-05-19T20:31:56.360Z,93.00
2019-05-19T20:34:28.097Z,90.60
2019-05-19T20:37:01.050Z,91.30
2019-05-19T20:39:33.821Z,90.90
2019-05-19T20:42:31.343Z,93.00
2019-05-19T20:45:03.657Z,93.40
2019-05-19T20:47:35.933Z,94.20
2019-05-19T20:50:07.531Z,93.70
2019-05-19T20:52:59.640Z,93.00
2019-05-19T20:55:32.211Z,91.90
2019-05-19T20:58:04.489Z,91.50
2019-05-19T21:00:49.431Z,90.80
2019-05-19T21:03:12.563Z,90.70
2019-05-19T21:05:46.382Z,90.80
2019-05-19T21:08:18.673Z,91.30
2019-05-19T21:10:48.833Z,91.00
2019-05-19T21:13:19.630Z,90.80
2019-05-19T21:15:55.834Z,91.60
2019-05-19T21:19:33.588Z,92.10
2019-05-19T21:22:18.222Z,95.00
2019-05-19T21:29:24.650Z,98.70
2019-05-19T22:03:33.693Z,99.90
2019-05-19T22:06:36.493Z,99.90
2019-05-19T22:09:49.033Z,99.90
2019-05-19T22:12:34.346Z,99.90
2019-05-19T22:15:09.584Z,99.90
2019-05-19T22:17:50.448Z,99.90
2019-05-19T22:20:29.947Z,99.90
2019-05-19T22:23:04.174Z,99.90
2019-05-19T22:25:38.171Z,99.90
2019-05-19T22:28:11.045Z,99.90
2019-05-19T22:30:42.207Z,99.90
2019-05-19T22:33:34.772Z,99.90
2019-05-19T22:36:07.793Z,99.90
2019-05-19T22:38:40.998Z,99.90
2019-05-19T22:41:18.791Z,99.90
2019-05-19T22:43:49.394Z,99.90
2019-05-19T22:46:21.896Z,99.90
2019-05-19T22:48:55.732Z,99.90
2019-05-19T22:51:30.492Z,99.90
2019-05-19T22:54:04.239Z,99.90
2019-05-19T22:56:35.996Z,99.90
2019-05-19T22:59:18.866Z,99.90
2019-05-19T23:01:51.331Z,99.90
2019-05-19T23:04:15.026Z,99.90
2019-05-19T23:06:45.622Z,99.90
2019-05-19T23:09:15.765Z,99.90
2019-05-19T23:11:45.867Z,99.90
2019-05-19T23:14:18.585Z,99.90
2019-05-19T23:16:48.835Z,99.90
2019-05-19T23:19:19.000Z,99.90
2019-05-19T23:21:53.006Z,99.90
2019-05-19T23:24:24.596Z,99.90
2019-05-19T23:26:54.682Z,99.90
2019-05-19T23:29:29.315Z,99.90
2019-05-19T23:32:07.008Z,99.90
2019-05-19T23:34:33.861Z,99.90
2019-05-19T23:37:05.993Z,99.90
2019-05-19T23:39:39.818Z,99.90
2019-05-19T23:42:12.595Z,99.90
2019-05-19T23:44:46.202Z,99.90
2019-05-19T23:47:18.073Z,99.70
2019-05-19T23:49:53.606Z,99.90
2019-05-19T23:52:24.661Z,99.90
2019-05-19T23:54:57.024Z,99.90
2019-05-19T23:57:31.704Z,99.90
